sensor_id;sensor_type;location;lat;lon;timestamp;temperature;humidity
20574;DHT22;10445;50.216;7.912;2023-01-13T00:01:18;8.40;99.90
20574;DHT22;10445;50.216;7.912;2023-01-13T00:04:08;8.30;99.90
20574;DHT22;10445;50.216;7.912;2023-01-13T00:06:59;8.30;99.90
20574;DHT22;10445;50.216;7.912;2023-01-13T00:09:48;8.30;99.90
20574;DHT22;10445;50.216;7.912;2023-01-13T00:12:38;8.40;99.90
20574;DHT22;10445;50.216;7.912;2023-01-13T00:15:28;8.40;99.90
20574;DHT22;10445;50.216;7.912;2023-01-13T00:18:17;8.50;99.90
20574;DHT22;10445;50.216;7.912;2023-01-13T00:21:07;8.50;99.90
20574;DHT22;10445;50.216;7.912;2023-01-13T00:23:59;8.50;99.90
20574;DHT22;10445;50.216;7.912;2023-01-13T00:26:48;8.50;99.90
20574;DHT22;10445;50.216;7.912;2023-01-13T00:29:37;8.50;99.90
20574;DHT22;10445;50.216;7.912;2023-01-13T00:32:26;8.50;99.90
20574;DHT22;10445;50.216;7.912;2023-01-13T00:35:15;8.60;99.90
20574;DHT22;10445;50.216;7.912;2023-01-13T00:38:04;8.60;99.70
20574;DHT22;10445;50.216;7.912;2023-01-13T00:40:58;8.60;99.90
20574;DHT22;10445;50.216;7.912;2023-01-13T00:43:47;8.60;99.90
20574;DHT22;10445;50.216;7.912;2023-01-13T00:46:35;8.60;99.50
20574;DHT22;10445;50.216;7.912;2023-01-13T00:49:24;8.60;99.90
20574;DHT22;10445;50.216;7.912;2023-01-13T00:52:13;8.60;99.90
20574;DHT22;10445;50.216;7.912;2023-01-13T00:55:02;8.60;99.90
20574;DHT22;10445;50.216;7.912;2023-01-13T00:57:52;8.60;99.90
20574;DHT22;10445;50.216;7.912;2023-01-13T01:00:41;8.60;99.90
20574;DHT22;10445;50.216;7.912;2023-01-13T01:03:30;8.60;99.90
20574;DHT22;10445;50.216;7.912;2023-01-13T01:06:21;8.50;99.90
20574;DHT22;10445;50.216;7.912;2023-01-13T01:09:12;8.50;99.90
20574;DHT22;10445;50.216;7.912;2023-01-13T01:12:01;8.50;99.90
20574;DHT22;10445;50.216;7.912;2023-01-13T01:14:51;8.40;99.90
20574;DHT22;10445;50.216;7.912;2023-01-13T01:17:40;8.40;99.90
20574;DHT22;10445;50.216;7.912;2023-01-13T01:20:29;8.40;99.90
20574;DHT22;10445;50.216;7.912;2023-01-13T01:23:18;8.40;99.90
20574;DHT22;10445;50.216;7.912;2023-01-13T01:26:10;8.40;99.90
20574;DHT22;10445;50.216;7.912;2023-01-13T01:29:00;8.40;99.90
20574;DHT22;10445;50.216;7.912;2023-01-13T01:31:51;8.40;99.90
20574;DHT22;10445;50.216;7.912;2023-01-13T01:34:39;8.40;99.90
20574;DHT22;10445;50.216;7.912;2023-01-13T01:37:28;8.40;99.90
20574;DHT22;10445;50.216;7.912;2023-01-13T01:40:17;8.40;99.90
20574;DHT22;10445;50.216;7.912;2023-01-13T01:43:13;8.50;99.90
20574;DHT22;10445;50.216;7.912;2023-01-13T01:46:19;8.50;99.90
20574;DHT22;10445;50.216;7.912;2023-01-13T01:49:13;8.50;99.90
20574;DHT22;10445;50.216;7.912;2023-01-13T01:52:07;8.50;99.90
20574;DHT22;10445;50.216;7.912;2023-01-13T01:54:59;8.50;99.90
20574;DHT22;10445;50.216;7.912;2023-01-13T01:57:52;8.50;99.90
20574;DHT22;10445;50.216;7.912;2023-01-13T02:00:43;8.50;99.90
20574;DHT22;10445;50.216;7.912;2023-01-13T02:03:34;8.60;99.90
20574;DHT22;10445;50.216;7.912;2023-01-13T02:06:26;8.60;99.90
20574;DHT22;10445;50.216;7.912;2023-01-13T02:09:16;8.60;99.90
20574;DHT22;10445;50.216;7.912;2023-01-13T02:12:05;8.60;99.90
20574;DHT22;10445;50.216;7.912;2023-01-13T02:15:13;8.50;99.90
20574;DHT22;10445;50.216;7.912;2023-01-13T02:18:21;8.50;99.90
20574;DHT22;10445;50.216;7.912;2023-01-13T02:21:34;8.50;99.90
20574;DHT22;10445;50.216;7.912;2023-01-13T02:24:54;8.50;99.90
20574;DHT22;10445;50.216;7.912;2023-01-13T02:28:05;8.40;99.90
20574;DHT22;10445;50.216;7.912;2023-01-13T02:31:05;8.40;99.90
20574;DHT22;10445;50.216;7.912;2023-01-13T02:34:17;8.30;99.90
20574;DHT22;10445;50.216;7.912;2023-01-13T02:37:14;8.30;99.90
20574;DHT22;10445;50.216;7.912;2023-01-13T02:40:08;8.30;99.90
20574;DHT22;10445;50.216;7.912;2023-01-13T02:43:04;8.30;99.90
20574;DHT22;10445;50.216;7.912;2023-01-13T02:46:16;8.30;99.90
20574;DHT22;10445;50.216;7.912;2023-01-13T02:49:09;8.30;99.90
20574;DHT22;10445;50.216;7.912;2023-01-13T02:52:05;8.30;99.90
20574;DHT22;10445;50.216;7.912;2023-01-13T02:54:57;8.30;99.90
20574;DHT22;10445;50.216;7.912;2023-01-13T02:57:47;8.30;99.90
20574;DHT22;10445;50.216;7.912;2023-01-13T03:00:37;8.30;99.90
20574;DHT22;10445;50.216;7.912;2023-01-13T03:03:28;8.30;99.90
20574;DHT22;10445;50.216;7.912;2023-01-13T03:06:33;8.30;99.90
20574;DHT22;10445;50.216;7.912;2023-01-13T03:09:26;8.20;99.90
20574;DHT22;10445;50.216;7.912;2023-01-13T03:12:28;8.20;99.90
20574;DHT22;10445;50.216;7.912;2023-01-13T03:15:26;8.20;99.90
20574;DHT22;10445;50.216;7.912;2023-01-13T03:18:34;8.20;99.90
20574;DHT22;10445;50.216;7.912;2023-01-13T03:21:30;8.20;99.90
20574;DHT22;10445;50.216;7.912;2023-01-13T03:24:26;8.20;99.90
20574;DHT22;10445;50.216;7.912;2023-01-13T03:27:19;8.20;99.90
20574;DHT22;10445;50.216;7.912;2023-01-13T03:33:05;8.30;99.90
20574;DHT22;10445;50.216;7.912;2023-01-13T03:36:02;8.20;99.90
20574;DHT22;10445;50.216;7.912;2023-01-13T03:38:55;8.20;99.90
20574;DHT22;10445;50.216;7.912;2023-01-13T03:41:48;8.20;99.90
20574;DHT22;10445;50.216;7.912;2023-01-13T03:44:41;8.30;99.90
20574;DHT22;10445;50.216;7.912;2023-01-13T03:47:34;8.30;99.90
20574;DHT22;10445;50.216;7.912;2023-01-13T03:50:28;8.30;99.90
20574;DHT22;10445;50.216;7.912;2023-01-13T03:53:24;8.30;99.90
20574;DHT22;10445;50.216;7.912;2023-01-13T03:56:20;8.30;99.90
20574;DHT22;10445;50.216;7.912;2023-01-13T03:59:15;8.30;99.90
20574;DHT22;10445;50.216;7.912;2023-01-13T04:02:07;8.30;99.90
20574;DHT22;10445;50.216;7.912;2023-01-13T04:04:59;8.30;99.90
20574;DHT22;10445;50.216;7.912;2023-01-13T04:07:54;8.30;99.90
20574;DHT22;10445;50.216;7.912;2023-01-13T04:10:48;8.20;99.90
20574;DHT22;10445;50.216;7.912;2023-01-13T04:13:41;8.20;99.90
20574;DHT22;10445;50.216;7.912;2023-01-13T04:16:31;8.20;99.90
20574;DHT22;10445;50.216;7.912;2023-01-13T04:19:23;8.00;99.90
20574;DHT22;10445;50.216;7.912;2023-01-13T04:22:12;7.70;99.90
20574;DHT22;10445;50.216;7.912;2023-01-13T04:25:01;7.50;99.90
20574;DHT22;10445;50.216;7.912;2023-01-13T04:27:51;7.40;99.90
20574;DHT22;10445;50.216;7.912;2023-01-13T04:30:40;7.30;99.90
20574;DHT22;10445;50.216;7.912;2023-01-13T04:33:29;7.20;99.90
20574;DHT22;10445;50.216;7.912;2023-01-13T04:36:17;7.10;99.90
20574;DHT22;10445;50.216;7.912;2023-01-13T04:39:11;7.00;99.90
20574;DHT22;10445;50.216;7.912;2023-01-13T04:42:00;7.00;99.90
20574;DHT22;10445;50.216;7.912;2023-01-13T04:44:50;6.90;99.90
20574;DHT22;10445;50.216;7.912;2023-01-13T04:47:38;6.90;99.90
20574;DHT22;10445;50.216;7.912;2023-01-13T04:50:28;6.80;99.90
20574;DHT22;10445;50.216;7.912;2023-01-13T04:53:16;6.80;99.90
20574;DHT22;10445;50.216;7.912;2023-01-13T04:56:05;6.70;99.90
20574;DHT22;10445;50.216;7.912;2023-01-13T04:58:54;6.70;99.90
20574;DHT22;10445;50.216;7.912;2023-01-13T05:01:44;6.60;99.90
20574;DHT22;10445;50.216;7.912;2023-01-13T05:04:33;6.60;99.90
20574;DHT22;10445;50.216;7.912;2023-01-13T05:07:22;6.60;99.90
20574;DHT22;10445;50.216;7.912;2023-01-13T05:10:11;6.50;99.90
20574;DHT22;10445;50.216;7.912;2023-01-13T05:12:59;6.40;99.90
20574;DHT22;10445;50.216;7.912;2023-01-13T05:16:08;6.40;99.90
20574;DHT22;10445;50.216;7.912;2023-01-13T05:19:16;6.40;99.90
20574;DHT22;10445;50.216;7.912;2023-01-13T05:22:04;6.40;99.90
20574;DHT22;10445;50.216;7.912;2023-01-13T05:25:11;6.40;99.90
20574;DHT22;10445;50.216;7.912;2023-01-13T05:28:09;6.40;99.90
20574;DHT22;10445;50.216;7.912;2023-01-13T05:30:57;6.40;99.90
20574;DHT22;10445;50.216;7.912;2023-01-13T05:33:46;6.40;99.90
20574;DHT22;10445;50.216;7.912;2023-01-13T05:36:36;6.30;99.90
20574;DHT22;10445;50.216;7.912;2023-01-13T05:39:26;6.30;99.90
20574;DHT22;10445;50.216;7.912;2023-01-13T05:42:35;6.30;99.90
20574;DHT22;10445;50.216;7.912;2023-01-13T05:45:40;6.30;99.90
20574;DHT22;10445;50.216;7.912;2023-01-13T05:48:31;6.30;99.90
20574;DHT22;10445;50.216;7.912;2023-01-13T05:51:19;6.30;99.90
20574;DHT22;10445;50.216;7.912;2023-01-13T05:54:14;6.20;99.90
20574;DHT22;10445;50.216;7.912;2023-01-13T05:57:02;6.20;99.90
20574;DHT22;10445;50.216;7.912;2023-01-13T05:59:51;6.20;99.90
20574;DHT22;10445;50.216;7.912;2023-01-13T06:02:40;6.20;99.90
20574;DHT22;10445;50.216;7.912;2023-01-13T06:05:29;6.20;99.90
20574;DHT22;10445;50.216;7.912;2023-01-13T06:08:17;6.10;99.90
20574;DHT22;10445;50.216;7.912;2023-01-13T06:11:07;6.10;99.90
20574;DHT22;10445;50.216;7.912;2023-01-13T06:13:56;6.10;99.90
20574;DHT22;10445;50.216;7.912;2023-01-13T06:16:45;6.10;99.90
20574;DHT22;10445;50.216;7.912;2023-01-13T06:19:33;6.10;99.90
20574;DHT22;10445;50.216;7.912;2023-01-13T06:22:24;6.10;99.90
20574;DHT22;10445;50.216;7.912;2023-01-13T06:25:18;6.10;99.90
20574;DHT22;10445;50.216;7.912;2023-01-13T06:28:10;6.00;99.90
20574;DHT22;10445;50.216;7.912;2023-01-13T06:31:00;5.90;99.90
20574;DHT22;10445;50.216;7.912;2023-01-13T06:33:55;5.80;99.90
20574;DHT22;10445;50.216;7.912;2023-01-13T06:36:49;5.90;99.90
20574;DHT22;10445;50.216;7.912;2023-01-13T06:39:39;5.80;99.90
20574;DHT22;10445;50.216;7.912;2023-01-13T06:42:30;5.80;99.90
20574;DHT22;10445;50.216;7.912;2023-01-13T06:45:39;5.80;99.90
20574;DHT22;10445;50.216;7.912;2023-01-13T06:48:30;5.90;99.90
20574;DHT22;10445;50.216;7.912;2023-01-13T06:51:21;5.90;99.90
20574;DHT22;10445;50.216;7.912;2023-01-13T06:54:09;5.90;98.50
20574;DHT22;10445;50.216;7.912;2023-01-13T06:56:58;6.00;97.90
20574;DHT22;10445;50.216;7.912;2023-01-13T06:59:47;6.00;98.90
20574;DHT22;10445;50.216;7.912;2023-01-13T07:02:38;6.00;97.70
20574;DHT22;10445;50.216;7.912;2023-01-13T07:05:26;6.00;97.80
20574;DHT22;10445;50.216;7.912;2023-01-13T07:08:15;6.00;97.50
20574;DHT22;10445;50.216;7.912;2023-01-13T07:11:04;6.00;97.00
20574;DHT22;10445;50.216;7.912;2023-01-13T07:13:53;6.00;96.00
20574;DHT22;10445;50.216;7.912;2023-01-13T07:16:59;6.00;95.30
20574;DHT22;10445;50.216;7.912;2023-01-13T07:19:49;6.10;93.90
20574;DHT22;10445;50.216;7.912;2023-01-13T07:22:38;6.10;93.90
20574;DHT22;10445;50.216;7.912;2023-01-13T07:25:26;6.10;92.70
20574;DHT22;10445;50.216;7.912;2023-01-13T07:28:15;6.20;90.60
20574;DHT22;10445;50.216;7.912;2023-01-13T07:31:04;6.10;91.80
20574;DHT22;10445;50.216;7.912;2023-01-13T07:33:53;6.20;91.90
20574;DHT22;10445;50.216;7.912;2023-01-13T07:36:43;6.20;90.50
20574;DHT22;10445;50.216;7.912;2023-01-13T07:39:32;6.20;91.50
20574;DHT22;10445;50.216;7.912;2023-01-13T07:42:20;6.20;91.10
20574;DHT22;10445;50.216;7.912;2023-01-13T07:45:29;6.20;90.90
20574;DHT22;10445;50.216;7.912;2023-01-13T07:48:17;6.20;91.60
20574;DHT22;10445;50.216;7.912;2023-01-13T07:51:07;6.20;92.40
20574;DHT22;10445;50.216;7.912;2023-01-13T07:53:58;6.20;91.50
20574;DHT22;10445;50.216;7.912;2023-01-13T07:56:46;6.20;91.10
20574;DHT22;10445;50.216;7.912;2023-01-13T07:59:35;6.20;91.90
20574;DHT22;10445;50.216;7.912;2023-01-13T08:02:24;6.20;88.90
20574;DHT22;10445;50.216;7.912;2023-01-13T08:05:13;6.30;89.00
20574;DHT22;10445;50.216;7.912;2023-01-13T08:08:01;6.30;90.00
20574;DHT22;10445;50.216;7.912;2023-01-13T08:10:51;6.30;87.80
20574;DHT22;10445;50.216;7.912;2023-01-13T08:13:40;6.30;85.60
20574;DHT22;10445;50.216;7.912;2023-01-13T08:16:31;6.30;81.80
20574;DHT22;10445;50.216;7.912;2023-01-13T08:19:20;6.30;84.40
20574;DHT22;10445;50.216;7.912;2023-01-13T08:22:09;6.30;84.10
20574;DHT22;10445;50.216;7.912;2023-01-13T08:24:58;6.30;84.10
20574;DHT22;10445;50.216;7.912;2023-01-13T08:27:49;6.30;81.10
20574;DHT22;10445;50.216;7.912;2023-01-13T08:30:37;6.30;77.10
20574;DHT22;10445;50.216;7.912;2023-01-13T08:33:26;6.40;73.10
20574;DHT22;10445;50.216;7.912;2023-01-13T08:36:15;6.40;72.20
20574;DHT22;10445;50.216;7.912;2023-01-13T08:39:04;6.50;74.00
20574;DHT22;10445;50.216;7.912;2023-01-13T08:41:53;6.60;73.30
20574;DHT22;10445;50.216;7.912;2023-01-13T08:44:46;6.70;71.20
20574;DHT22;10445;50.216;7.912;2023-01-13T08:47:35;6.70;66.50
20574;DHT22;10445;50.216;7.912;2023-01-13T08:50:23;6.70;64.70
20574;DHT22;10445;50.216;7.912;2023-01-13T08:53:12;6.70;63.00
20574;DHT22;10445;50.216;7.912;2023-01-13T08:56:01;6.60;63.50
20574;DHT22;10445;50.216;7.912;2023-01-13T08:58:49;6.60;64.20
20574;DHT22;10445;50.216;7.912;2023-01-13T09:01:39;6.50;63.30
20574;DHT22;10445;50.216;7.912;2023-01-13T09:04:28;6.50;65.40
20574;DHT22;10445;50.216;7.912;2023-01-13T09:07:17;6.50;65.40
20574;DHT22;10445;50.216;7.912;2023-01-13T09:10:07;7.00;63.60
20574;DHT22;10445;50.216;7.912;2023-01-13T09:12:56;7.50;55.10
20574;DHT22;10445;50.216;7.912;2023-01-13T09:15:59;7.90;40.60
20574;DHT22;10445;50.216;7.912;2023-01-13T09:18:49;8.30;44.70
20574;DHT22;10445;50.216;7.912;2023-01-13T09:21:37;8.70;38.40
20574;DHT22;10445;50.216;7.912;2023-01-13T09:24:26;8.30;36.50
20574;DHT22;10445;50.216;7.912;2023-01-13T09:27:15;7.80;40.80
20574;DHT22;10445;50.216;7.912;2023-01-13T09:30:04;7.30;46.20
20574;DHT22;10445;50.216;7.912;2023-01-13T09:32:56;7.10;50.60
20574;DHT22;10445;50.216;7.912;2023-01-13T09:36:00;6.90;51.80
20574;DHT22;10445;50.216;7.912;2023-01-13T09:38:49;6.80;53.70
20574;DHT22;10445;50.216;7.912;2023-01-13T09:41:41;6.80;52.40
20574;DHT22;10445;50.216;7.912;2023-01-13T09:44:51;6.70;51.40
20574;DHT22;10445;50.216;7.912;2023-01-13T09:47:47;6.80;52.00
20574;DHT22;10445;50.216;7.912;2023-01-13T09:50:50;7.00;53.40
20574;DHT22;10445;50.216;7.912;2023-01-13T09:53:48;7.30;52.30
20574;DHT22;10445;50.216;7.912;2023-01-13T09:56:38;7.70;45.10
20574;DHT22;10445;50.216;7.912;2023-01-13T09:59:30;7.70;41.10
20574;DHT22;10445;50.216;7.912;2023-01-13T10:02:38;8.00;40.30
20574;DHT22;10445;50.216;7.912;2023-01-13T10:05:34;7.80;40.80
20574;DHT22;10445;50.216;7.912;2023-01-13T10:08:25;7.50;42.50
20574;DHT22;10445;50.216;7.912;2023-01-13T10:11:17;7.40;46.10
20574;DHT22;10445;50.216;7.912;2023-01-13T10:14:27;7.30;41.80
20574;DHT22;10445;50.216;7.912;2023-01-13T10:17:24;7.30;46.40
20574;DHT22;10445;50.216;7.912;2023-01-13T10:20:20;7.30;48.70
20574;DHT22;10445;50.216;7.912;2023-01-13T10:23:23;7.20;49.50
20574;DHT22;10445;50.216;7.912;2023-01-13T10:26:38;7.00;49.90
20574;DHT22;10445;50.216;7.912;2023-01-13T10:29:30;6.80;54.80
20574;DHT22;10445;50.216;7.912;2023-01-13T10:32:20;6.50;58.50
20574;DHT22;10445;50.216;7.912;2023-01-13T10:35:09;6.30;63.60
20574;DHT22;10445;50.216;7.912;2023-01-13T10:37:57;6.20;63.60
20574;DHT22;10445;50.216;7.912;2023-01-13T10:40:49;6.10;67.00
20574;DHT22;10445;50.216;7.912;2023-01-13T10:43:41;6.50;65.50
20574;DHT22;10445;50.216;7.912;2023-01-13T10:46:31;7.10;52.60
20574;DHT22;10445;50.216;7.912;2023-01-13T10:49:27;7.60;45.00
20574;DHT22;10445;50.216;7.912;2023-01-13T10:52:25;7.90;38.60
20574;DHT22;10445;50.216;7.912;2023-01-13T10:55:25;8.30;32.00
20574;DHT22;10445;50.216;7.912;2023-01-13T10:58:17;8.50;28.30
20574;DHT22;10445;50.216;7.912;2023-01-13T11:01:19;8.60;29.00
20574;DHT22;10445;50.216;7.912;2023-01-13T11:04:26;8.70;31.20
20574;DHT22;10445;50.216;7.912;2023-01-13T11:07:21;9.00;25.00
20574;DHT22;10445;50.216;7.912;2023-01-13T11:10:18;8.80;24.00
20574;DHT22;10445;50.216;7.912;2023-01-13T11:13:11;8.40;27.50
20574;DHT22;10445;50.216;7.912;2023-01-13T11:16:03;8.10;31.10
20574;DHT22;10445;50.216;7.912;2023-01-13T11:18:57;8.00;32.20
20574;DHT22;10445;50.216;7.912;2023-01-13T11:22:02;7.90;35.30
20574;DHT22;10445;50.216;7.912;2023-01-13T11:24:54;7.90;35.40
20574;DHT22;10445;50.216;7.912;2023-01-13T11:27:47;8.10;32.80
20574;DHT22;10445;50.216;7.912;2023-01-13T11:30:42;8.20;32.20
20574;DHT22;10445;50.216;7.912;2023-01-13T11:33:37;8.40;33.30
20574;DHT22;10445;50.216;7.912;2023-01-13T11:36:33;8.40;30.60
20574;DHT22;10445;50.216;7.912;2023-01-13T11:39:29;8.10;26.00
20574;DHT22;10445;50.216;7.912;2023-01-13T11:42:27;7.90;26.70
20574;DHT22;10445;50.216;7.912;2023-01-13T11:45:20;7.90;30.90
20574;DHT22;10445;50.216;7.912;2023-01-13T11:48:13;7.80;32.50
20574;DHT22;10445;50.216;7.912;2023-01-13T11:51:06;7.80;31.30
20574;DHT22;10445;50.216;7.912;2023-01-13T11:54:28;7.80;23.10
20574;DHT22;10445;50.216;7.912;2023-01-13T11:57:42;7.90;20.50
20574;DHT22;10445;50.216;7.912;2023-01-13T12:00:48;8.00;16.20
20574;DHT22;10445;50.216;7.912;2023-01-13T12:03:42;8.00;13.80
20574;DHT22;10445;50.216;7.912;2023-01-13T12:06:34;8.00;13.70
20574;DHT22;10445;50.216;7.912;2023-01-13T12:09:35;7.90;13.70
20574;DHT22;10445;50.216;7.912;2023-01-13T12:12:41;7.60;15.50
20574;DHT22;10445;50.216;7.912;2023-01-13T12:15:49;7.50;17.00
20574;DHT22;10445;50.216;7.912;2023-01-13T12:19:02;7.70;15.70
20574;DHT22;10445;50.216;7.912;2023-01-13T12:22:00;8.00;13.00
20574;DHT22;10445;50.216;7.912;2023-01-13T12:24:55;8.30;12.40
20574;DHT22;10445;50.216;7.912;2023-01-13T12:27:48;8.20;12.20
20574;DHT22;10445;50.216;7.912;2023-01-13T12:30:41;8.10;11.80
20574;DHT22;10445;50.216;7.912;2023-01-13T12:36:54;7.70;14.80
20574;DHT22;10445;50.216;7.912;2023-01-13T12:39:56;7.50;15.60
20574;DHT22;10445;50.216;7.912;2023-01-13T12:42:51;7.40;16.00
20574;DHT22;10445;50.216;7.912;2023-01-13T12:46:34;7.30;18.60
20574;DHT22;10445;50.216;7.912;2023-01-13T12:49:25;7.00;17.90
20574;DHT22;10445;50.216;7.912;2023-01-13T12:52:14;6.80;20.50
20574;DHT22;10445;50.216;7.912;2023-01-13T12:55:15;6.70;26.50
20574;DHT22;10445;50.216;7.912;2023-01-13T12:58:14;6.50;39.60
20574;DHT22;10445;50.216;7.912;2023-01-13T13:01:10;6.20;50.40
20574;DHT22;10445;50.216;7.912;2023-01-13T13:04:07;6.10;54.20
20574;DHT22;10445;50.216;7.912;2023-01-13T13:07:05;6.10;61.10
20574;DHT22;10445;50.216;7.912;2023-01-13T13:09:58;6.10;65.60
20574;DHT22;10445;50.216;7.912;2023-01-13T13:12:55;6.00;66.80
20574;DHT22;10445;50.216;7.912;2023-01-13T13:19:45;5.80;64.20
20574;DHT22;10445;50.216;7.912;2023-01-13T13:22:42;5.80;64.00
20574;DHT22;10445;50.216;7.912;2023-01-13T13:25:58;5.80;63.20
20574;DHT22;10445;50.216;7.912;2023-01-13T13:28:58;5.70;65.90
20574;DHT22;10445;50.216;7.912;2023-01-13T13:35:20;5.70;76.50
20574;DHT22;10445;50.216;7.912;2023-01-13T13:38:24;5.80;79.40
20574;DHT22;10445;50.216;7.912;2023-01-13T13:41:43;5.90;78.70
20574;DHT22;10445;50.216;7.912;2023-01-13T13:44:52;5.90;73.40
20574;DHT22;10445;50.216;7.912;2023-01-13T13:47:59;6.00;74.00
20574;DHT22;10445;50.216;7.912;2023-01-13T13:50:50;6.10;71.50
20574;DHT22;10445;50.216;7.912;2023-01-13T13:53:42;6.20;68.20
20574;DHT22;10445;50.216;7.912;2023-01-13T13:56:37;6.40;61.70
20574;DHT22;10445;50.216;7.912;2023-01-13T13:59:28;6.40;52.00
20574;DHT22;10445;50.216;7.912;2023-01-13T14:02:24;6.40;49.80
20574;DHT22;10445;50.216;7.912;2023-01-13T14:05:17;6.50;46.00
20574;DHT22;10445;50.216;7.912;2023-01-13T14:08:13;6.50;45.20
20574;DHT22;10445;50.216;7.912;2023-01-13T14:11:22;6.60;44.80
20574;DHT22;10445;50.216;7.912;2023-01-13T14:14:13;6.60;41.70
20574;DHT22;10445;50.216;7.912;2023-01-13T14:17:04;6.70;38.50
20574;DHT22;10445;50.216;7.912;2023-01-13T14:19:58;6.80;39.80
20574;DHT22;10445;50.216;7.912;2023-01-13T14:22:48;6.90;39.90
20574;DHT22;10445;50.216;7.912;2023-01-13T14:25:45;6.90;38.10
20574;DHT22;10445;50.216;7.912;2023-01-13T14:28:36;6.80;35.20
20574;DHT22;10445;50.216;7.912;2023-01-13T14:31:25;6.70;35.80
20574;DHT22;10445;50.216;7.912;2023-01-13T14:34:14;6.70;36.80
20574;DHT22;10445;50.216;7.912;2023-01-13T14:37:31;6.60;36.40
20574;DHT22;10445;50.216;7.912;2023-01-13T14:40:39;6.60;37.40
20574;DHT22;10445;50.216;7.912;2023-01-13T14:43:31;6.70;36.60
20574;DHT22;10445;50.216;7.912;2023-01-13T14:46:20;6.70;34.60
20574;DHT22;10445;50.216;7.912;2023-01-13T14:49:21;6.60;35.10
20574;DHT22;10445;50.216;7.912;2023-01-13T21:58:32;5.00;94.30
20574;DHT22;10445;50.216;7.912;2023-01-13T22:01:20;4.90;99.90
20574;DHT22;10445;50.216;7.912;2023-01-13T22:04:09;4.90;99.90
20574;DHT22;10445;50.216;7.912;2023-01-13T22:07:01;4.90;99.90
20574;DHT22;10445;50.216;7.912;2023-01-13T22:09:50;4.90;99.90
20574;DHT22;10445;50.216;7.912;2023-01-13T22:12:39;4.90;99.90
20574;DHT22;10445;50.216;7.912;2023-01-13T22:15:30;4.80;99.90
20574;DHT22;10445;50.216;7.912;2023-01-13T22:18:20;4.90;99.90
20574;DHT22;10445;50.216;7.912;2023-01-13T22:21:09;4.90;99.90
20574;DHT22;10445;50.216;7.912;2023-01-13T22:23:58;4.90;99.90
20574;DHT22;10445;50.216;7.912;2023-01-13T22:26:46;4.90;99.90
20574;DHT22;10445;50.216;7.912;2023-01-13T22:29:35;5.00;99.90
20574;DHT22;10445;50.216;7.912;2023-01-13T22:32:25;5.00;99.90
20574;DHT22;10445;50.216;7.912;2023-01-13T22:35:15;5.00;99.90
20574;DHT22;10445;50.216;7.912;2023-01-13T22:38:05;5.00;99.90
20574;DHT22;10445;50.216;7.912;2023-01-13T22:40:58;5.00;99.90
20574;DHT22;10445;50.216;7.912;2023-01-13T22:43:48;5.00;99.90
20574;DHT22;10445;50.216;7.912;2023-01-13T22:46:36;5.00;99.90
20574;DHT22;10445;50.216;7.912;2023-01-13T22:49:26;5.00;99.90
20574;DHT22;10445;50.216;7.912;2023-01-13T22:52:16;5.00;99.90
20574;DHT22;10445;50.216;7.912;2023-01-13T22:55:06;5.00;99.90
20574;DHT22;10445;50.216;7.912;2023-01-13T22:57:55;4.90;99.90
20574;DHT22;10445;50.216;7.912;2023-01-13T23:00:43;4.90;99.90
20574;DHT22;10445;50.216;7.912;2023-01-13T23:03:32;4.90;99.90
20574;DHT22;10445;50.216;7.912;2023-01-13T23:06:24;4.90;99.90
20574;DHT22;10445;50.216;7.912;2023-01-13T23:09:13;4.90;99.90
20574;DHT22;10445;50.216;7.912;2023-01-13T23:12:01;4.90;99.90
20574;DHT22;10445;50.216;7.912;2023-01-13T23:14:50;4.90;99.90
20574;DHT22;10445;50.216;7.912;2023-01-13T23:17:39;4.90;99.90
20574;DHT22;10445;50.216;7.912;2023-01-13T23:20:28;4.90;99.90
20574;DHT22;10445;50.216;7.912;2023-01-13T23:23:18;4.90;99.90
20574;DHT22;10445;50.216;7.912;2023-01-13T23:26:07;4.90;99.90
20574;DHT22;10445;50.216;7.912;2023-01-13T23:29:00;4.90;99.90
20574;DHT22;10445;50.216;7.912;2023-01-13T23:31:49;4.90;99.90
20574;DHT22;10445;50.216;7.912;2023-01-13T23:34:37;4.90;99.90
20574;DHT22;10445;50.216;7.912;2023-01-13T23:37:26;4.90;99.90
20574;DHT22;10445;50.216;7.912;2023-01-13T23:40:16;5.00;99.90
20574;DHT22;10445;50.216;7.912;2023-01-13T23:43:05;5.00;99.90
20574;DHT22;10445;50.216;7.912;2023-01-13T23:46:00;5.00;99.90
20574;DHT22;10445;50.216;7.912;2023-01-13T23:48:49;5.00;99.90
20574;DHT22;10445;50.216;7.912;2023-01-13T23:51:38;5.00;99.90
20574;DHT22;10445;50.216;7.912;2023-01-13T23:54:27;5.10;99.90
20574;DHT22;10445;50.216;7.912;2023-01-13T23:57:17;5.10;99.90
